ΕΜΥ, Εθνική Μετεωρολογική Υπηρεσία - Δελτία Καιρού, Προγνώσεις

ΑΕΡΟΝΑΥΤΙΛΙΑ

GREEK AIRPORTS CODES

TAF LGBL 040500Z 0406/0415 29012KT 9999 SCT020 BKN080 PROB30 TEMPO 0412/0415 5000 RA=

EUROPEAN AIRPORTS CODES

EDDB 040620Z AUTO 33007KT CAVOK 00/M01 Q1032 NOSIG=